sensor_id;sensor_type;location;lat;lon;timestamp;P1;durP1;ratioP1;P2;durP2;ratioP2
25299;SDS011;13241;51.208;4.432;2023-11-22T00:01:06;13.27;;;5.28;;
25299;SDS011;13241;51.208;4.432;2023-11-22T00:03:33;13.45;;;6.28;;
25299;SDS011;13241;51.208;4.432;2023-11-22T00:06:01;12.38;;;6.38;;
25299;SDS011;13241;51.208;4.432;2023-11-22T00:08:28;12.23;;;6.25;;
25299;SDS011;13241;51.208;4.432;2023-11-22T00:10:56;14.00;;;6.78;;
25299;SDS011;13241;51.208;4.432;2023-11-22T00:13:23;12.00;;;5.88;;
25299;SDS011;13241;51.208;4.432;2023-11-22T00:15:51;9.95;;;4.47;;
25299;SDS011;13241;51.208;4.432;2023-11-22T00:18:18;13.50;;;5.32;;
25299;SDS011;13241;51.208;4.432;2023-11-22T00:20:45;10.23;;;5.30;;
25299;SDS011;13241;51.208;4.432;2023-11-22T00:23:13;13.93;;;6.53;;
25299;SDS011;13241;51.208;4.432;2023-11-22T00:25:41;10.95;;;6.60;;
25299;SDS011;13241;51.208;4.432;2023-11-22T00:28:08;9.40;;;5.50;;
25299;SDS011;13241;51.208;4.432;2023-11-22T00:30:36;10.60;;;6.15;;
25299;SDS011;13241;51.208;4.432;2023-11-22T00:33:03;11.70;;;5.97;;
25299;SDS011;13241;51.208;4.432;2023-11-22T00:35:31;11.85;;;5.85;;
25299;SDS011;13241;51.208;4.432;2023-11-22T00:38:00;10.77;;;5.57;;
25299;SDS011;13241;51.208;4.432;2023-11-22T00:40:27;14.93;;;6.57;;
25299;SDS011;13241;51.208;4.432;2023-11-22T00:42:55;13.48;;;6.30;;
25299;SDS011;13241;51.208;4.432;2023-11-22T00:45:22;13.35;;;5.45;;
25299;SDS011;13241;51.208;4.432;2023-11-22T00:47:50;17.38;;;6.45;;
25299;SDS011;13241;51.208;4.432;2023-11-22T00:50:18;10.45;;;5.13;;
25299;SDS011;13241;51.208;4.432;2023-11-22T00:52:47;10.02;;;6.05;;
25299;SDS011;13241;51.208;4.432;2023-11-22T00:55:14;16.23;;;6.85;;
25299;SDS011;13241;51.208;4.432;2023-11-22T00:57:42;13.63;;;6.10;;
25299;SDS011;13241;51.208;4.432;2023-11-22T01:00:10;11.15;;;5.57;;
25299;SDS011;13241;51.208;4.432;2023-11-22T01:02:38;17.50;;;6.55;;
25299;SDS011;13241;51.208;4.432;2023-11-22T01:05:07;17.65;;;6.47;;
25299;SDS011;13241;51.208;4.432;2023-11-22T01:07:38;13.00;;;5.85;;
25299;SDS011;13241;51.208;4.432;2023-11-22T01:10:07;9.18;;;5.68;;
25299;SDS011;13241;51.208;4.432;2023-11-22T01:12:34;13.43;;;5.88;;
25299;SDS011;13241;51.208;4.432;2023-11-22T01:15:01;8.80;;;5.50;;
25299;SDS011;13241;51.208;4.432;2023-11-22T01:17:29;10.02;;;6.20;;
25299;SDS011;13241;51.208;4.432;2023-11-22T01:20:00;10.27;;;5.35;;
25299;SDS011;13241;51.208;4.432;2023-11-22T01:22:28;9.50;;;5.35;;
25299;SDS011;13241;51.208;4.432;2023-11-22T01:24:57;10.40;;;5.72;;
25299;SDS011;13241;51.208;4.432;2023-11-22T01:27:25;11.32;;;5.90;;
25299;SDS011;13241;51.208;4.432;2023-11-22T01:29:52;12.45;;;6.10;;
25299;SDS011;13241;51.208;4.432;2023-11-22T01:32:20;10.70;;;5.22;;
25299;SDS011;13241;51.208;4.432;2023-11-22T01:34:48;12.35;;;6.50;;
25299;SDS011;13241;51.208;4.432;2023-11-22T01:37:15;12.82;;;6.55;;
25299;SDS011;13241;51.208;4.432;2023-11-22T01:39:42;14.05;;;6.22;;
25299;SDS011;13241;51.208;4.432;2023-11-22T01:42:10;13.55;;;6.65;;
25299;SDS011;13241;51.208;4.432;2023-11-22T01:44:37;20.23;;;5.57;;
25299;SDS011;13241;51.208;4.432;2023-11-22T01:47:04;13.18;;;5.68;;
25299;SDS011;13241;51.208;4.432;2023-11-22T01:49:32;13.43;;;6.38;;
25299;SDS011;13241;51.208;4.432;2023-11-22T01:51:59;13.55;;;5.90;;
25299;SDS011;13241;51.208;4.432;2023-11-22T01:54:27;10.90;;;5.97;;
25299;SDS011;13241;51.208;4.432;2023-11-22T01:56:55;11.55;;;5.85;;
25299;SDS011;13241;51.208;4.432;2023-11-22T01:59:22;12.88;;;6.30;;
25299;SDS011;13241;51.208;4.432;2023-11-22T02:01:55;14.10;;;5.95;;
25299;SDS011;13241;51.208;4.432;2023-11-22T02:04:23;12.27;;;6.43;;
25299;SDS011;13241;51.208;4.432;2023-11-22T02:06:50;8.70;;;5.45;;
25299;SDS011;13241;51.208;4.432;2023-11-22T02:09:18;14.35;;;5.85;;
25299;SDS011;13241;51.208;4.432;2023-11-22T02:11:46;14.05;;;6.20;;
25299;SDS011;13241;51.208;4.432;2023-11-22T02:14:15;14.80;;;5.68;;
25299;SDS011;13241;51.208;4.432;2023-11-22T02:16:43;12.27;;;6.15;;
25299;SDS011;13241;51.208;4.432;2023-11-22T02:19:14;9.60;;;4.70;;
25299;SDS011;13241;51.208;4.432;2023-11-22T02:21:42;12.90;;;5.68;;
25299;SDS011;13241;51.208;4.432;2023-11-22T02:24:10;10.73;;;5.72;;
25299;SDS011;13241;51.208;4.432;2023-11-22T02:26:38;11.10;;;5.63;;
25299;SDS011;13241;51.208;4.432;2023-11-22T02:29:10;15.02;;;6.28;;
25299;SDS011;13241;51.208;4.432;2023-11-22T02:31:37;9.07;;;5.43;;
25299;SDS011;13241;51.208;4.432;2023-11-22T02:34:04;15.27;;;6.75;;
25299;SDS011;13241;51.208;4.432;2023-11-22T02:36:31;13.63;;;5.95;;
25299;SDS011;13241;51.208;4.432;2023-11-22T02:38:59;16.65;;;5.78;;
25299;SDS011;13241;51.208;4.432;2023-11-22T02:41:27;11.18;;;6.03;;
25299;SDS011;13241;51.208;4.432;2023-11-22T02:43:56;9.93;;;5.88;;
25299;SDS011;13241;51.208;4.432;2023-11-22T02:46:23;13.07;;;7.35;;
25299;SDS011;13241;51.208;4.432;2023-11-22T02:48:51;11.20;;;6.30;;
25299;SDS011;13241;51.208;4.432;2023-11-22T02:51:20;12.48;;;6.05;;
25299;SDS011;13241;51.208;4.432;2023-11-22T02:53:48;14.15;;;6.80;;
25299;SDS011;13241;51.208;4.432;2023-11-22T02:56:16;12.70;;;5.68;;
25299;SDS011;13241;51.208;4.432;2023-11-22T02:58:43;13.65;;;7.00;;
25299;SDS011;13241;51.208;4.432;2023-11-22T03:01:12;10.52;;;6.05;;
25299;SDS011;13241;51.208;4.432;2023-11-22T03:03:39;10.32;;;5.22;;
25299;SDS011;13241;51.208;4.432;2023-11-22T03:06:07;9.10;;;5.30;;
25299;SDS011;13241;51.208;4.432;2023-11-22T03:08:35;13.55;;;6.47;;
25299;SDS011;13241;51.208;4.432;2023-11-22T03:11:02;14.32;;;7.18;;
25299;SDS011;13241;51.208;4.432;2023-11-22T03:13:31;16.90;;;7.10;;
25299;SDS011;13241;51.208;4.432;2023-11-22T03:15:59;13.55;;;6.40;;
25299;SDS011;13241;51.208;4.432;2023-11-22T03:18:26;14.25;;;6.43;;
25299;SDS011;13241;51.208;4.432;2023-11-22T03:20:53;15.15;;;6.82;;
25299;SDS011;13241;51.208;4.432;2023-11-22T03:23:21;10.13;;;6.18;;
25299;SDS011;13241;51.208;4.432;2023-11-22T03:25:48;9.70;;;6.07;;
25299;SDS011;13241;51.208;4.432;2023-11-22T03:28:15;14.23;;;6.38;;
25299;SDS011;13241;51.208;4.432;2023-11-22T03:30:43;13.20;;;7.38;;
25299;SDS011;13241;51.208;4.432;2023-11-22T03:33:11;9.65;;;5.72;;
25299;SDS011;13241;51.208;4.432;2023-11-22T03:35:41;10.63;;;5.80;;
25299;SDS011;13241;51.208;4.432;2023-11-22T03:38:08;11.95;;;6.03;;
25299;SDS011;13241;51.208;4.432;2023-11-22T03:40:36;9.60;;;5.03;;
25299;SDS011;13241;51.208;4.432;2023-11-22T03:43:03;14.73;;;7.28;;
25299;SDS011;13241;51.208;4.432;2023-11-22T03:45:30;14.23;;;5.78;;
25299;SDS011;13241;51.208;4.432;2023-11-22T03:47:59;13.57;;;5.63;;
25299;SDS011;13241;51.208;4.432;2023-11-22T03:50:26;10.23;;;6.03;;
25299;SDS011;13241;51.208;4.432;2023-11-22T03:52:53;15.00;;;6.40;;
25299;SDS011;13241;51.208;4.432;2023-11-22T03:55:21;15.50;;;7.20;;
25299;SDS011;13241;51.208;4.432;2023-11-22T03:57:49;12.27;;;6.25;;
25299;SDS011;13241;51.208;4.432;2023-11-22T04:00:16;14.38;;;6.10;;
25299;SDS011;13241;51.208;4.432;2023-11-22T04:02:43;15.90;;;6.75;;
25299;SDS011;13241;51.208;4.432;2023-11-22T04:05:11;15.70;;;6.35;;
25299;SDS011;13241;51.208;4.432;2023-11-22T04:07:39;11.10;;;6.40;;
25299;SDS011;13241;51.208;4.432;2023-11-22T04:10:06;12.35;;;5.60;;
25299;SDS011;13241;51.208;4.432;2023-11-22T04:12:33;14.93;;;6.05;;
25299;SDS011;13241;51.208;4.432;2023-11-22T04:15:02;15.45;;;7.85;;
25299;SDS011;13241;51.208;4.432;2023-11-22T04:17:30;13.63;;;6.97;;
25299;SDS011;13241;51.208;4.432;2023-11-22T04:19:59;11.55;;;6.47;;
25299;SDS011;13241;51.208;4.432;2023-11-22T04:22:26;12.77;;;6.65;;
25299;SDS011;13241;51.208;4.432;2023-11-22T04:24:53;14.50;;;8.07;;
25299;SDS011;13241;51.208;4.432;2023-11-22T04:27:21;13.38;;;6.90;;
25299;SDS011;13241;51.208;4.432;2023-11-22T04:29:49;13.02;;;6.60;;
25299;SDS011;13241;51.208;4.432;2023-11-22T04:32:16;14.05;;;6.47;;
25299;SDS011;13241;51.208;4.432;2023-11-22T04:34:43;10.90;;;4.95;;
25299;SDS011;13241;51.208;4.432;2023-11-22T04:37:11;17.02;;;7.30;;
25299;SDS011;13241;51.208;4.432;2023-11-22T04:39:38;14.15;;;7.20;;
25299;SDS011;13241;51.208;4.432;2023-11-22T04:42:05;21.05;;;7.35;;
25299;SDS011;13241;51.208;4.432;2023-11-22T04:44:33;12.07;;;6.65;;
25299;SDS011;13241;51.208;4.432;2023-11-22T04:47:00;11.82;;;5.70;;
25299;SDS011;13241;51.208;4.432;2023-11-22T04:49:27;12.23;;;6.18;;
25299;SDS011;13241;51.208;4.432;2023-11-22T04:51:55;19.42;;;6.25;;
25299;SDS011;13241;51.208;4.432;2023-11-22T04:54:22;11.63;;;5.25;;
25299;SDS011;13241;51.208;4.432;2023-11-22T04:56:49;10.60;;;6.18;;
25299;SDS011;13241;51.208;4.432;2023-11-22T04:59:17;13.02;;;5.85;;
25299;SDS011;13241;51.208;4.432;2023-11-22T05:01:44;11.52;;;5.75;;
25299;SDS011;13241;51.208;4.432;2023-11-22T05:04:12;12.77;;;6.88;;
25299;SDS011;13241;51.208;4.432;2023-11-22T05:06:39;17.63;;;7.30;;
25299;SDS011;13241;51.208;4.432;2023-11-22T05:09:06;12.75;;;6.63;;
25299;SDS011;13241;51.208;4.432;2023-11-22T05:11:36;9.45;;;6.10;;
25299;SDS011;13241;51.208;4.432;2023-11-22T05:14:03;17.75;;;6.60;;
25299;SDS011;13241;51.208;4.432;2023-11-22T05:16:31;13.77;;;7.07;;
25299;SDS011;13241;51.208;4.432;2023-11-22T05:19:00;15.77;;;7.35;;
25299;SDS011;13241;51.208;4.432;2023-11-22T05:21:27;14.27;;;6.25;;
25299;SDS011;13241;51.208;4.432;2023-11-22T05:23:54;13.60;;;6.00;;
25299;SDS011;13241;51.208;4.432;2023-11-22T05:26:22;11.80;;;5.35;;
25299;SDS011;13241;51.208;4.432;2023-11-22T05:28:49;14.63;;;7.13;;
25299;SDS011;13241;51.208;4.432;2023-11-22T05:31:17;12.10;;;6.53;;
25299;SDS011;13241;51.208;4.432;2023-11-22T05:33:44;13.15;;;5.88;;
25299;SDS011;13241;51.208;4.432;2023-11-22T05:36:12;13.88;;;7.40;;
25299;SDS011;13241;51.208;4.432;2023-11-22T05:38:40;12.02;;;6.35;;
25299;SDS011;13241;51.208;4.432;2023-11-22T05:41:09;11.90;;;5.97;;
25299;SDS011;13241;51.208;4.432;2023-11-22T05:43:36;13.55;;;6.07;;
25299;SDS011;13241;51.208;4.432;2023-11-22T05:46:03;19.85;;;7.60;;
25299;SDS011;13241;51.208;4.432;2023-11-22T05:48:31;15.50;;;7.57;;
25299;SDS011;13241;51.208;4.432;2023-11-22T05:50:58;10.82;;;5.70;;
25299;SDS011;13241;51.208;4.432;2023-11-22T05:53:26;13.82;;;6.60;;
25299;SDS011;13241;51.208;4.432;2023-11-22T05:55:53;11.75;;;6.60;;
25299;SDS011;13241;51.208;4.432;2023-11-22T05:58:20;14.50;;;6.10;;
25299;SDS011;13241;51.208;4.432;2023-11-22T06:00:48;13.02;;;6.50;;
25299;SDS011;13241;51.208;4.432;2023-11-22T06:03:15;13.43;;;7.13;;
25299;SDS011;13241;51.208;4.432;2023-11-22T06:05:42;13.13;;;5.93;;
25299;SDS011;13241;51.208;4.432;2023-11-22T06:08:10;13.70;;;6.78;;
25299;SDS011;13241;51.208;4.432;2023-11-22T06:10:37;14.73;;;6.72;;
25299;SDS011;13241;51.208;4.432;2023-11-22T06:13:07;16.77;;;6.78;;
25299;SDS011;13241;51.208;4.432;2023-11-22T06:15:35;11.70;;;6.00;;
25299;SDS011;13241;51.208;4.432;2023-11-22T06:18:02;11.50;;;5.90;;
25299;SDS011;13241;51.208;4.432;2023-11-22T06:20:29;13.40;;;6.75;;
25299;SDS011;13241;51.208;4.432;2023-11-22T06:22:57;9.85;;;5.30;;
25299;SDS011;13241;51.208;4.432;2023-11-22T06:25:24;13.27;;;7.22;;
25299;SDS011;13241;51.208;4.432;2023-11-22T06:27:51;12.65;;;5.63;;
25299;SDS011;13241;51.208;4.432;2023-11-22T06:30:19;17.70;;;7.55;;
25299;SDS011;13241;51.208;4.432;2023-11-22T06:32:46;14.50;;;6.82;;
25299;SDS011;13241;51.208;4.432;2023-11-22T06:35:13;15.35;;;6.85;;
25299;SDS011;13241;51.208;4.432;2023-11-22T06:37:41;10.50;;;6.28;;
25299;SDS011;13241;51.208;4.432;2023-11-22T06:40:09;14.95;;;6.80;;
25299;SDS011;13241;51.208;4.432;2023-11-22T06:42:40;16.95;;;8.85;;
25299;SDS011;13241;51.208;4.432;2023-11-22T06:45:08;13.32;;;7.00;;
25299;SDS011;13241;51.208;4.432;2023-11-22T06:47:42;18.42;;;7.28;;
25299;SDS011;13241;51.208;4.432;2023-11-22T06:50:11;16.05;;;6.70;;
25299;SDS011;13241;51.208;4.432;2023-11-22T06:52:38;19.85;;;7.97;;
25299;SDS011;13241;51.208;4.432;2023-11-22T06:55:07;16.65;;;7.18;;
25299;SDS011;13241;51.208;4.432;2023-11-22T06:57:35;20.45;;;7.82;;
25299;SDS011;13241;51.208;4.432;2023-11-22T07:00:03;22.13;;;7.20;;
25299;SDS011;13241;51.208;4.432;2023-11-22T07:02:31;16.75;;;7.30;;
25299;SDS011;13241;51.208;4.432;2023-11-22T07:04:59;18.38;;;7.78;;
25299;SDS011;13241;51.208;4.432;2023-11-22T07:07:26;14.23;;;7.13;;
25299;SDS011;13241;51.208;4.432;2023-11-22T07:09:54;14.57;;;8.05;;
25299;SDS011;13241;51.208;4.432;2023-11-22T07:12:26;13.05;;;6.97;;
25299;SDS011;13241;51.208;4.432;2023-11-22T07:14:53;12.57;;;6.75;;
25299;SDS011;13241;51.208;4.432;2023-11-22T07:17:21;16.15;;;7.95;;
25299;SDS011;13241;51.208;4.432;2023-11-22T07:19:49;14.52;;;7.65;;
25299;SDS011;13241;51.208;4.432;2023-11-22T07:22:17;15.82;;;7.43;;
25299;SDS011;13241;51.208;4.432;2023-11-22T07:24:46;28.17;;;6.72;;
25299;SDS011;13241;51.208;4.432;2023-11-22T07:27:26;12.88;;;6.03;;
25299;SDS011;13241;51.208;4.432;2023-11-22T07:29:53;21.33;;;8.25;;
25299;SDS011;13241;51.208;4.432;2023-11-22T07:32:20;12.88;;;6.90;;
25299;SDS011;13241;51.208;4.432;2023-11-22T07:34:48;20.48;;;7.68;;
25299;SDS011;13241;51.208;4.432;2023-11-22T07:37:15;15.27;;;7.47;;
25299;SDS011;13241;51.208;4.432;2023-11-22T07:39:44;16.00;;;7.65;;
25299;SDS011;13241;51.208;4.432;2023-11-22T07:42:13;22.13;;;8.55;;
25299;SDS011;13241;51.208;4.432;2023-11-22T07:44:41;20.95;;;8.43;;
25299;SDS011;13241;51.208;4.432;2023-11-22T07:47:08;16.83;;;8.60;;
25299;SDS011;13241;51.208;4.432;2023-11-22T07:49:40;19.35;;;7.35;;
25299;SDS011;13241;51.208;4.432;2023-11-22T07:52:08;18.50;;;8.15;;
25299;SDS011;13241;51.208;4.432;2023-11-22T07:54:40;15.70;;;8.05;;
25299;SDS011;13241;51.208;4.432;2023-11-22T07:57:07;22.10;;;9.32;;
25299;SDS011;13241;51.208;4.432;2023-11-22T07:59:34;24.27;;;9.73;;
25299;SDS011;13241;51.208;4.432;2023-11-22T08:02:04;20.25;;;8.85;;
25299;SDS011;13241;51.208;4.432;2023-11-22T08:04:37;22.70;;;9.77;;
25299;SDS011;13241;51.208;4.432;2023-11-22T08:07:05;30.83;;;9.05;;
25299;SDS011;13241;51.208;4.432;2023-11-22T08:09:32;17.95;;;8.68;;
25299;SDS011;13241;51.208;4.432;2023-11-22T08:12:06;20.27;;;8.68;;
25299;SDS011;13241;51.208;4.432;2023-11-22T08:14:34;21.58;;;8.23;;
25299;SDS011;13241;51.208;4.432;2023-11-22T08:17:01;22.05;;;8.77;;
25299;SDS011;13241;51.208;4.432;2023-11-22T08:19:30;19.02;;;9.10;;
25299;SDS011;13241;51.208;4.432;2023-11-22T08:21:57;27.50;;;8.45;;
25299;SDS011;13241;51.208;4.432;2023-11-22T08:24:24;20.40;;;7.03;;
25299;SDS011;13241;51.208;4.432;2023-11-22T08:26:51;17.35;;;9.00;;
25299;SDS011;13241;51.208;4.432;2023-11-22T08:29:19;16.65;;;7.55;;
25299;SDS011;13241;51.208;4.432;2023-11-22T08:31:46;17.98;;;7.97;;
25299;SDS011;13241;51.208;4.432;2023-11-22T08:34:18;21.48;;;9.63;;
25299;SDS011;13241;51.208;4.432;2023-11-22T08:36:45;13.48;;;7.55;;
25299;SDS011;13241;51.208;4.432;2023-11-22T08:39:12;17.92;;;8.00;;
25299;SDS011;13241;51.208;4.432;2023-11-22T08:41:40;14.95;;;7.50;;
25299;SDS011;13241;51.208;4.432;2023-11-22T08:44:07;14.43;;;6.72;;
25299;SDS011;13241;51.208;4.432;2023-11-22T08:46:35;21.80;;;9.77;;
25299;SDS011;13241;51.208;4.432;2023-11-22T08:49:03;19.88;;;7.07;;
25299;SDS011;13241;51.208;4.432;2023-11-22T08:51:30;14.38;;;7.65;;
25299;SDS011;13241;51.208;4.432;2023-11-22T08:53:59;16.50;;;8.20;;
25299;SDS011;13241;51.208;4.432;2023-11-22T08:56:27;17.30;;;8.52;;
25299;SDS011;13241;51.208;4.432;2023-11-22T08:58:54;18.52;;;8.48;;
25299;SDS011;13241;51.208;4.432;2023-11-22T09:01:21;24.75;;;7.53;;
25299;SDS011;13241;51.208;4.432;2023-11-22T09:03:49;16.27;;;7.10;;
25299;SDS011;13241;51.208;4.432;2023-11-22T09:06:17;21.80;;;9.13;;
25299;SDS011;13241;51.208;4.432;2023-11-22T09:08:45;19.75;;;8.82;;
25299;SDS011;13241;51.208;4.432;2023-11-22T09:11:12;22.42;;;9.98;;
25299;SDS011;13241;51.208;4.432;2023-11-22T09:13:42;19.60;;;9.75;;
25299;SDS011;13241;51.208;4.432;2023-11-22T09:16:09;19.50;;;9.20;;
25299;SDS011;13241;51.208;4.432;2023-11-22T09:18:38;23.98;;;9.77;;
25299;SDS011;13241;51.208;4.432;2023-11-22T09:21:06;21.63;;;8.88;;
25299;SDS011;13241;51.208;4.432;2023-11-22T09:23:35;24.42;;;9.55;;
25299;SDS011;13241;51.208;4.432;2023-11-22T09:26:02;19.67;;;8.38;;
25299;SDS011;13241;51.208;4.432;2023-11-22T09:28:31;20.00;;;8.52;;
25299;SDS011;13241;51.208;4.432;2023-11-22T09:30:59;22.83;;;8.88;;
25299;SDS011;13241;51.208;4.432;2023-11-22T09:36:00;16.90;;;7.97;;
25299;SDS011;13241;51.208;4.432;2023-11-22T09:38:34;18.10;;;7.85;;
25299;SDS011;13241;51.208;4.432;2023-11-22T09:41:01;17.00;;;9.10;;
25299;SDS011;13241;51.208;4.432;2023-11-22T09:43:29;20.00;;;9.27;;
25299;SDS011;13241;51.208;4.432;2023-11-22T09:45:57;17.00;;;7.40;;
25299;SDS011;13241;51.208;4.432;2023-11-22T09:48:26;20.98;;;9.38;;
25299;SDS011;13241;51.208;4.432;2023-11-22T09:53:51;19.20;;;8.77;;
25299;SDS011;13241;51.208;4.432;2023-11-22T09:56:23;19.52;;;8.40;;
25299;SDS011;13241;51.208;4.432;2023-11-22T09:58:51;16.58;;;7.38;;
25299;SDS011;13241;51.208;4.432;2023-11-22T10:01:24;14.27;;;7.13;;
25299;SDS011;13241;51.208;4.432;2023-11-22T10:03:54;16.05;;;7.85;;
25299;SDS011;13241;51.208;4.432;2023-11-22T10:06:22;20.02;;;8.32;;
25299;SDS011;13241;51.208;4.432;2023-11-22T10:08:50;15.65;;;7.40;;
25299;SDS011;13241;51.208;4.432;2023-11-22T10:11:19;16.42;;;7.85;;
25299;SDS011;13241;51.208;4.432;2023-11-22T10:13:48;18.35;;;8.65;;
25299;SDS011;13241;51.208;4.432;2023-11-22T10:16:16;18.92;;;9.95;;
25299;SDS011;13241;51.208;4.432;2023-11-22T10:18:46;16.58;;;8.93;;
25299;SDS011;13241;51.208;4.432;2023-11-22T10:26:15;18.02;;;7.40;;
25299;SDS011;13241;51.208;4.432;2023-11-22T10:28:43;16.13;;;7.32;;
25299;SDS011;13241;51.208;4.432;2023-11-22T10:31:10;20.73;;;8.80;;
25299;SDS011;13241;51.208;4.432;2023-11-22T10:33:39;19.50;;;8.32;;
25299;SDS011;13241;51.208;4.432;2023-11-22T10:36:09;18.60;;;8.07;;
25299;SDS011;13241;51.208;4.432;2023-11-22T10:38:38;16.23;;;7.65;;
25299;SDS011;13241;51.208;4.432;2023-11-22T10:41:06;14.18;;;7.82;;
25299;SDS011;13241;51.208;4.432;2023-11-22T10:43:35;15.93;;;7.93;;
25299;SDS011;13241;51.208;4.432;2023-11-22T10:46:03;17.83;;;8.05;;
25299;SDS011;13241;51.208;4.432;2023-11-22T10:48:31;16.80;;;7.43;;
25299;SDS011;13241;51.208;4.432;2023-11-22T10:51:00;17.25;;;8.95;;
25299;SDS011;13241;51.208;4.432;2023-11-22T10:53:32;17.05;;;7.80;;
25299;SDS011;13241;51.208;4.432;2023-11-22T10:56:21;14.23;;;7.28;;
25299;SDS011;13241;51.208;4.432;2023-11-22T10:58:49;22.58;;;8.00;;
25299;SDS011;13241;51.208;4.432;2023-11-22T11:01:20;14.75;;;7.72;;
25299;SDS011;13241;51.208;4.432;2023-11-22T11:03:54;17.63;;;7.72;;
25299;SDS011;13241;51.208;4.432;2023-11-22T11:06:24;18.15;;;7.47;;
25299;SDS011;13241;51.208;4.432;2023-11-22T11:08:55;24.10;;;8.43;;
25299;SDS011;13241;51.208;4.432;2023-11-22T11:11:24;18.35;;;8.65;;
25299;SDS011;13241;51.208;4.432;2023-11-22T11:13:52;13.85;;;6.93;;
25299;SDS011;13241;51.208;4.432;2023-11-22T11:16:20;21.33;;;8.95;;
25299;SDS011;13241;51.208;4.432;2023-11-22T11:18:48;20.50;;;10.18;;
25299;SDS011;13241;51.208;4.432;2023-11-22T11:21:16;23.67;;;9.85;;
25299;SDS011;13241;51.208;4.432;2023-11-22T11:23:45;25.10;;;9.38;;
25299;SDS011;13241;51.208;4.432;2023-11-22T11:26:17;19.95;;;9.07;;
25299;SDS011;13241;51.208;4.432;2023-11-22T11:28:46;21.98;;;9.30;;
25299;SDS011;13241;51.208;4.432;2023-11-22T11:31:14;22.85;;;11.45;;
25299;SDS011;13241;51.208;4.432;2023-11-22T11:36:25;25.75;;;9.70;;
25299;SDS011;13241;51.208;4.432;2023-11-22T11:38:54;19.67;;;8.50;;
25299;SDS011;13241;51.208;4.432;2023-11-22T11:41:28;24.40;;;9.73;;
25299;SDS011;13241;51.208;4.432;2023-11-22T11:43:56;26.92;;;11.13;;
25299;SDS011;13241;51.208;4.432;2023-11-22T11:46:24;22.38;;;10.85;;
25299;SDS011;13241;51.208;4.432;2023-11-22T11:48:53;23.92;;;11.75;;
25299;SDS011;13241;51.208;4.432;2023-11-22T11:51:23;28.75;;;11.45;;
25299;SDS011;13241;51.208;4.432;2023-11-22T11:53:50;29.25;;;12.50;;
25299;SDS011;13241;51.208;4.432;2023-11-22T11:56:18;23.85;;;10.93;;
25299;SDS011;13241;51.208;4.432;2023-11-22T11:58:46;30.67;;;11.38;;
25299;SDS011;13241;51.208;4.432;2023-11-22T12:01:14;30.00;;;11.88;;
25299;SDS011;13241;51.208;4.432;2023-11-22T12:03:43;23.17;;;10.10;;
25299;SDS011;13241;51.208;4.432;2023-11-22T12:06:14;20.02;;;9.85;;
25299;SDS011;13241;51.208;4.432;2023-11-22T12:08:43;16.58;;;8.57;;
25299;SDS011;13241;51.208;4.432;2023-11-22T12:11:10;14.48;;;8.00;;
25299;SDS011;13241;51.208;4.432;2023-11-22T12:13:38;18.40;;;8.95;;
25299;SDS011;13241;51.208;4.432;2023-11-22T12:16:05;15.77;;;7.75;;
25299;SDS011;13241;51.208;4.432;2023-11-22T12:18:44;21.45;;;8.25;;
25299;SDS011;13241;51.208;4.432;2023-11-22T12:21:13;20.08;;;9.10;;
25299;SDS011;13241;51.208;4.432;2023-11-22T12:23:41;18.10;;;8.38;;
25299;SDS011;13241;51.208;4.432;2023-11-22T12:26:11;15.18;;;7.70;;
25299;SDS011;13241;51.208;4.432;2023-11-22T12:28:39;21.23;;;9.13;;
25299;SDS011;13241;51.208;4.432;2023-11-22T12:31:18;19.25;;;8.05;;
25299;SDS011;13241;51.208;4.432;2023-11-22T12:33:46;21.17;;;9.93;;
25299;SDS011;13241;51.208;4.432;2023-11-22T12:36:18;20.17;;;8.98;;
25299;SDS011;13241;51.208;4.432;2023-11-22T12:38:45;24.00;;;9.80;;
25299;SDS011;13241;51.208;4.432;2023-11-22T12:41:14;21.42;;;9.55;;
25299;SDS011;13241;51.208;4.432;2023-11-22T12:43:41;18.45;;;7.38;;
25299;SDS011;13241;51.208;4.432;2023-11-22T12:46:16;18.95;;;8.43;;
25299;SDS011;13241;51.208;4.432;2023-11-22T12:48:45;20.33;;;8.15;;
25299;SDS011;13241;51.208;4.432;2023-11-22T12:51:15;14.65;;;7.20;;
25299;SDS011;13241;51.208;4.432;2023-11-22T12:53:53;16.02;;;8.80;;
25299;SDS011;13241;51.208;4.432;2023-11-22T12:56:20;18.27;;;8.10;;
25299;SDS011;13241;51.208;4.432;2023-11-22T12:58:48;16.98;;;7.93;;
25299;SDS011;13241;51.208;4.432;2023-11-22T13:01:15;23.30;;;9.00;;
25299;SDS011;13241;51.208;4.432;2023-11-22T13:03:42;18.35;;;8.63;;
25299;SDS011;13241;51.208;4.432;2023-11-22T13:06:09;21.92;;;9.82;;
25299;SDS011;13241;51.208;4.432;2023-11-22T13:08:37;19.40;;;9.27;;
25299;SDS011;13241;51.208;4.432;2023-11-22T13:11:04;16.25;;;8.25;;
25299;SDS011;13241;51.208;4.432;2023-11-22T13:13:34;25.70;;;9.35;;
25299;SDS011;13241;51.208;4.432;2023-11-22T13:16:01;18.55;;;8.43;;
25299;SDS011;13241;51.208;4.432;2023-11-22T13:18:31;24.25;;;9.20;;
25299;SDS011;13241;51.208;4.432;2023-11-22T13:20:59;15.95;;;9.63;;
25299;SDS011;13241;51.208;4.432;2023-11-22T13:23:27;21.45;;;9.77;;
25299;SDS011;13241;51.208;4.432;2023-11-22T13:25:55;20.45;;;10.68;;
25299;SDS011;13241;51.208;4.432;2023-11-22T13:28:22;18.80;;;10.25;;
25299;SDS011;13241;51.208;4.432;2023-11-22T13:30:51;21.83;;;9.32;;
25299;SDS011;13241;51.208;4.432;2023-11-22T13:33:19;18.50;;;8.35;;
25299;SDS011;13241;51.208;4.432;2023-11-22T13:35:46;18.52;;;7.35;;
25299;SDS011;13241;51.208;4.432;2023-11-22T13:38:14;16.30;;;8.75;;
25299;SDS011;13241;51.208;4.432;2023-11-22T13:40:42;15.27;;;6.80;;
25299;SDS011;13241;51.208;4.432;2023-11-22T13:43:12;24.35;;;7.88;;
25299;SDS011;13241;51.208;4.432;2023-11-22T13:45:40;16.88;;;7.90;;
25299;SDS011;13241;51.208;4.432;2023-11-22T13:48:08;20.30;;;8.90;;
25299;SDS011;13241;51.208;4.432;2023-11-22T13:50:38;13.93;;;7.10;;
25299;SDS011;13241;51.208;4.432;2023-11-22T13:53:06;14.32;;;6.88;;
25299;SDS011;13241;51.208;4.432;2023-11-22T13:55:37;16.38;;;7.90;;
25299;SDS011;13241;51.208;4.432;2023-11-22T13:58:05;15.43;;;7.38;;
25299;SDS011;13241;51.208;4.432;2023-11-22T14:00:32;13.30;;;6.82;;
25299;SDS011;13241;51.208;4.432;2023-11-22T14:03:02;15.63;;;7.35;;
25299;SDS011;13241;51.208;4.432;2023-11-22T14:05:34;19.50;;;7.82;;
25299;SDS011;13241;51.208;4.432;2023-11-22T14:08:03;18.10;;;8.25;;
25299;SDS011;13241;51.208;4.432;2023-11-22T14:10:32;17.10;;;8.25;;
25299;SDS011;13241;51.208;4.432;2023-11-22T14:12:59;18.30;;;8.18;;
25299;SDS011;13241;51.208;4.432;2023-11-22T14:15:29;16.42;;;8.32;;
25299;SDS011;13241;51.208;4.432;2023-11-22T14:17:56;15.10;;;7.55;;
25299;SDS011;13241;51.208;4.432;2023-11-22T14:20:24;23.52;;;9.32;;
25299;SDS011;13241;51.208;4.432;2023-11-22T14:22:51;15.32;;;7.82;;
25299;SDS011;13241;51.208;4.432;2023-11-22T14:25:19;15.63;;;7.50;;
25299;SDS011;13241;51.208;4.432;2023-11-22T14:27:47;21.38;;;8.48;;
25299;SDS011;13241;51.208;4.432;2023-11-22T14:30:21;15.30;;;8.63;;
25299;SDS011;13241;51.208;4.432;2023-11-22T14:32:49;19.75;;;8.48;;
25299;SDS011;13241;51.208;4.432;2023-11-22T14:35:18;13.07;;;6.68;;
25299;SDS011;13241;51.208;4.432;2023-11-22T14:37:45;17.02;;;7.88;;
25299;SDS011;13241;51.208;4.432;2023-11-22T14:40:13;17.42;;;8.02;;
25299;SDS011;13241;51.208;4.432;2023-11-22T14:42:42;17.63;;;7.35;;
25299;SDS011;13241;51.208;4.432;2023-11-22T14:45:11;14.43;;;7.05;;
25299;SDS011;13241;51.208;4.432;2023-11-22T14:47:39;17.42;;;7.30;;
25299;SDS011;13241;51.208;4.432;2023-11-22T14:50:07;18.27;;;7.78;;
25299;SDS011;13241;51.208;4.432;2023-11-22T14:52:38;14.07;;;7.43;;
25299;SDS011;13241;51.208;4.432;2023-11-22T14:55:06;17.63;;;8.07;;